Nara — VSBC9 — position and weather

sailwx.info

Track history (hours):
 
Tides and Currents Weather Stations Pressure Air Temp Water Temp Dewpoint Dewpoint Depression Visibility Wind Speed Wind Dir Waves Ship Positions

Nara

Last reported at 2014-Jun-28 10:31 UTC. Time now 2014-Oct-26 03:50 UTC.
Position N 39°34' E 002°38'.
Warning: this ship's position is months out of date.

Length 60 m; draft 3.2 m.

Type: Pleasure craft. MMSI: 310335000.

Date/timePositionNaut miles runAvg speedWind from/ knotsBaromVisibWave heightAir tempDewpointWater temp
2014-Jun-28 10:31N 39°34' E 002°38'0 0.0
2014-Jun-28 09:33N 39°34' E 002°38'0 0.0
2014-Jun-28 08:32N 39°34' E 002°38'0 0.0
2014-Jun-28 06:33N 39°34' E 002°38'0 0.0
2014-Jun-28 05:32N 39°34' E 002°38'0 0.0
2014-Jun-28 04:31N 39°34' E 002°38'0 0.0
2014-Jun-28 03:33N 39°34' E 002°38'0 0.0
2014-Jun-28 02:32N 39°34' E 002°38'0 0.0
2014-Jun-28 01:31N 39°34' E 002°38'0 0.0
2014-Jun-28 00:33N 39°34' E 002°38'0 0.0
2014-Jun-27 23:32N 39°34' E 002°38'0 0.0
2014-Jun-27 22:34N 39°34' E 002°38'0 0.0
2014-Jun-27 21:32N 39°34' E 002°38'0 0.0
2014-Jun-27 20:31N 39°34' E 002°38'0 0.0
2014-Jun-27 19:33N 39°34' E 002°38'0 0.0
2014-Jun-27 18:32N 39°34' E 002°38'0 0.0
2014-Jun-27 17:31N 39°34' E 002°38'0 0.0
2014-Jun-27 16:33N 39°34' E 002°38'0 0.0
2014-Jun-27 15:31N 39°34' E 002°38'0 0.0
2014-Jun-27 14:25N 39°34' E 002°38'0 0.0
2014-Jun-27 13:33N 39°34' E 002°38'0 0.0
2014-Jun-27 12:32N 39°34' E 002°38'0 0.0
2014-Jun-27 11:30N 39°34' E 002°38'0 0.0
2014-Jun-27 10:29N 39°34' E 002°38'0 0.0
2014-Jun-27 09:31N 39°34' E 002°38'0 0.0
2014-Jun-27 08:33N 39°34' E 002°38'0 0.0
2014-Jun-27 07:32N 39°34' E 002°38'0 0.0
2014-Jun-27 06:31N 39°34' E 002°38'0 0.0
2014-Jun-27 05:33N 39°34' E 002°38'0 0.0
2014-Jun-27 04:31N 39°34' E 002°38'0 0.0
2014-Jun-27 03:33N 39°34' E 002°38'0 0.0
2014-Jun-27 02:29N 39°34' E 002°38'0 0.0
2014-Jun-27 01:31N 39°34' E 002°38'0 0.0
2014-Jun-27 00:33N 39°34' E 002°38'0 0.0
2014-Jun-26 23:32N 39°34' E 002°38'0 0.0
2014-Jun-26 22:31N 39°34' E 002°38'0 0.0
2014-Jun-26 21:33N 39°34' E 002°38'0 0.0
2014-Jun-26 20:32N 39°34' E 002°38'0 0.0
2014-Jun-26 19:31N 39°34' E 002°38'0 0.0
2014-Jun-26 18:33N 39°34' E 002°38'0 0.0
2014-Jun-26 17:33N 39°34' E 002°38'10 9.9
2014-Jun-26 16:33N 39°26' E 002°30'1514.6
2014-Jun-26 15:33N 39°17' E 002°15'1414.3
2014-Jun-26 14:33N 39°10' E 001°59'1514.6
2014-Jun-26 13:33N 39°01' E 001°43'0 0.0
2014-Jun-25 13:28N 39°01' E 001°43'1213.0
2014-Jun-25 12:32N 39°09' E 001°56'1312.8
2014-Jun-25 11:33N 39°15' E 002°10'1413.4
2014-Jun-25 10:29N 39°23' E 002°25'1213.1
2014-Jun-25 09:33N 39°31' E 002°37'2 2.3
2014-Jun-25 08:32N 39°34' E 002°38'0 0.0
2014-Jun-25 07:30N 39°34' E 002°38'0 0.0
2014-Jun-25 06:32N 39°34' E 002°38'0 0.0
2014-Jun-25 05:31N 39°34' E 002°38'0 0.0
2014-Jun-25 04:33N 39°34' E 002°38'0 0.0
2014-Jun-25 03:31N 39°34' E 002°38'0 0.0
2014-Jun-25 02:33N 39°34' E 002°38'0 0.0
2014-Jun-25 01:32N 39°34' E 002°38'0 0.0
2014-Jun-25 00:31N 39°34' E 002°38'0 0.0
2014-Jun-24 23:33N 39°34' E 002°38'0 0.0
2014-Jun-24 22:31N 39°34' E 002°38'0 0.0
2014-Jun-24 21:33N 39°34' E 002°38'0 0.0
2014-Jun-24 20:32N 39°34' E 002°38'0 0.0
2014-Jun-24 19:31N 39°34' E 002°38'0 0.0
2014-Jun-24 18:33N 39°34' E 002°38'0 0.0
2014-Jun-24 17:31N 39°34' E 002°38'0 0.0
2014-Jun-24 16:33N 39°34' E 002°38'0 0.0
2014-Jun-24 15:32N 39°34' E 002°38'0 0.0
2014-Jun-24 14:31N 39°34' E 002°38'0 0.0
2014-Jun-24 13:28N 39°34' E 002°38'0 0.0
2014-Jun-24 12:33N 39°34' E 002°38'0 0.0
2014-Jun-24 11:32N 39°34' E 002°38'0 0.0
2014-Jun-24 10:31N 39°34' E 002°38'0 0.0
2014-Jun-24 09:33N 39°34' E 002°38'0 0.0
2014-Jun-24 08:33N 39°34' E 002°38'0 0.0
2014-Jun-24 07:32N 39°34' E 002°38'4 3.9
2014-Jun-24 06:33N 39°30' E 002°35'1010.0
2014-Jun-24 05:33N 39°31' E 002°23'9 9.1
2014-Jun-24 04:31N 39°40' E 002°24'1212.8
2014-Jun-24 03:33N 39°49' E 002°35'1313.2
2014-Jun-24 02:33N 39°58' E 002°46'1211.5
2014-Jun-24 01:33N 40°07' E 002°57'1211.8
2014-Jun-24 00:33N 40°15' E 003°08'3712.4
2014-Jun-23 21:32N 40°43' E 003°41'1412.6
2014-Jun-23 20:26N 40°53' E 003°54'1212.2
2014-Jun-23 19:25N 41°02' E 004°05'1112.5
2014-Jun-23 18:31N 41°10' E 004°16'1212.0
2014-Jun-23 17:33N 41°18' E 004°26'1312.6
2014-Jun-23 16:33N 41°27' E 004°38'1412.7
2014-Jun-23 15:27N 41°38' E 004°51'3911.8
2014-Jun-23 12:09N 42°05' E 005°27'5611.6
2014-Jun-23 07:19N 42°47' E 006°18'1112.1
2014-Jun-23 06:27N 42°54' E 006°29'1212.3
2014-Jun-23 05:31N 43°03' E 006°39'1412.6
2014-Jun-23 04:25N 43°15' E 006°48'1112.4
2014-Jun-23 03:33N 43°24' E 006°55'9 9.0
2014-Jun-23 02:31N 43°32' E 007°01'0 0.0
2014-Jun-23 00:30N 43°32' E 007°01'0 0.0
2014-Jun-22 22:27N 43°32' E 007°01'1 0.0
2014-Jun-21 08:27N 43°33' E 007°01'  
Track history (hours):
 
Tides and Currents Weather Stations Pressure Air Temp Water Temp Dewpoint Dewpoint Depression Visibility Wind Speed Wind Dir Waves Ship Positions

Nara

Last reported at 2014-Jun-28 10:31 UTC. Time now 2014-Oct-26 03:50 UTC.
Position N 39°34' E 002°38'.
Warning: this ship's position is months out of date.

Length 60 m; draft 3.2 m.

Type: Pleasure craft. MMSI: 310335000.

Date/timePositionNaut miles runAvg speedWind from/ knotsBaromVisibWave heightAir tempDewpointWater temp
2014-Jun-28 10:31N 39°34' E 002°38'0 0.0
2014-Jun-28 09:33N 39°34' E 002°38'0 0.0
2014-Jun-28 08:32N 39°34' E 002°38'0 0.0
2014-Jun-28 06:33N 39°34' E 002°38'0 0.0
2014-Jun-28 05:32N 39°34' E 002°38'0 0.0
2014-Jun-28 04:31N 39°34' E 002°38'0 0.0
2014-Jun-28 03:33N 39°34' E 002°38'0 0.0
2014-Jun-28 02:32N 39°34' E 002°38'0 0.0
2014-Jun-28 01:31N 39°34' E 002°38'0 0.0
2014-Jun-28 00:33N 39°34' E 002°38'0 0.0
2014-Jun-27 23:32N 39°34' E 002°38'0 0.0
2014-Jun-27 22:34N 39°34' E 002°38'0 0.0
2014-Jun-27 21:32N 39°34' E 002°38'0 0.0
2014-Jun-27 20:31N 39°34' E 002°38'0 0.0
2014-Jun-27 19:33N 39°34' E 002°38'0 0.0
2014-Jun-27 18:32N 39°34' E 002°38'0 0.0
2014-Jun-27 17:31N 39°34' E 002°38'0 0.0
2014-Jun-27 16:33N 39°34' E 002°38'0 0.0
2014-Jun-27 15:31N 39°34' E 002°38'0 0.0
2014-Jun-27 14:25N 39°34' E 002°38'0 0.0
2014-Jun-27 13:33N 39°34' E 002°38'0 0.0
2014-Jun-27 12:32N 39°34' E 002°38'0 0.0
2014-Jun-27 11:30N 39°34' E 002°38'0 0.0
2014-Jun-27 10:29N 39°34' E 002°38'0 0.0
2014-Jun-27 09:31N 39°34' E 002°38'0 0.0
2014-Jun-27 08:33N 39°34' E 002°38'0 0.0
2014-Jun-27 07:32N 39°34' E 002°38'0 0.0
2014-Jun-27 06:31N 39°34' E 002°38'0 0.0
2014-Jun-27 05:33N 39°34' E 002°38'0 0.0
2014-Jun-27 04:31N 39°34' E 002°38'0 0.0
2014-Jun-27 03:33N 39°34' E 002°38'0 0.0
2014-Jun-27 02:29N 39°34' E 002°38'0 0.0
2014-Jun-27 01:31N 39°34' E 002°38'0 0.0
2014-Jun-27 00:33N 39°34' E 002°38'0 0.0
2014-Jun-26 23:32N 39°34' E 002°38'0 0.0
2014-Jun-26 22:31N 39°34' E 002°38'0 0.0
2014-Jun-26 21:33N 39°34' E 002°38'0 0.0
2014-Jun-26 20:32N 39°34' E 002°38'0 0.0
2014-Jun-26 19:31N 39°34' E 002°38'0 0.0
2014-Jun-26 18:33N 39°34' E 002°38'0 0.0
2014-Jun-26 17:33N 39°34' E 002°38'10 9.9
2014-Jun-26 16:33N 39°26' E 002°30'1514.6
2014-Jun-26 15:33N 39°17' E 002°15'1414.3
2014-Jun-26 14:33N 39°10' E 001°59'1514.6
2014-Jun-26 13:33N 39°01' E 001°43'0 0.0
2014-Jun-25 13:28N 39°01' E 001°43'1213.0
2014-Jun-25 12:32N 39°09' E 001°56'1312.8
2014-Jun-25 11:33N 39°15' E 002°10'1413.4
2014-Jun-25 10:29N 39°23' E 002°25'1213.1
2014-Jun-25 09:33N 39°31' E 002°37'2 2.3
2014-Jun-25 08:32N 39°34' E 002°38'0 0.0
2014-Jun-25 07:30N 39°34' E 002°38'0 0.0
2014-Jun-25 06:32N 39°34' E 002°38'0 0.0
2014-Jun-25 05:31N 39°34' E 002°38'0 0.0
2014-Jun-25 04:33N 39°34' E 002°38'0 0.0
2014-Jun-25 03:31N 39°34' E 002°38'0 0.0
2014-Jun-25 02:33N 39°34' E 002°38'0 0.0
2014-Jun-25 01:32N 39°34' E 002°38'0 0.0
2014-Jun-25 00:31N 39°34' E 002°38'0 0.0
2014-Jun-24 23:33N 39°34' E 002°38'0 0.0
2014-Jun-24 22:31N 39°34' E 002°38'0 0.0
2014-Jun-24 21:33N 39°34' E 002°38'0 0.0
2014-Jun-24 20:32N 39°34' E 002°38'0 0.0
2014-Jun-24 19:31N 39°34' E 002°38'0 0.0
2014-Jun-24 18:33N 39°34' E 002°38'0 0.0
2014-Jun-24 17:31N 39°34' E 002°38'0 0.0
2014-Jun-24 16:33N 39°34' E 002°38'0 0.0
2014-Jun-24 15:32N 39°34' E 002°38'0 0.0
2014-Jun-24 14:31N 39°34' E 002°38'0 0.0
2014-Jun-24 13:28N 39°34' E 002°38'0 0.0
2014-Jun-24 12:33N 39°34' E 002°38'0 0.0
2014-Jun-24 11:32N 39°34' E 002°38'0 0.0
2014-Jun-24 10:31N 39°34' E 002°38'0 0.0
2014-Jun-24 09:33N 39°34' E 002°38'0 0.0
2014-Jun-24 08:33N 39°34' E 002°38'0 0.0
2014-Jun-24 07:32N 39°34' E 002°38'4 3.9
2014-Jun-24 06:33N 39°30' E 002°35'1010.0
2014-Jun-24 05:33N 39°31' E 002°23'9 9.1
2014-Jun-24 04:31N 39°40' E 002°24'1212.8
2014-Jun-24 03:33N 39°49' E 002°35'1313.2
2014-Jun-24 02:33N 39°58' E 002°46'1211.5
2014-Jun-24 01:33N 40°07' E 002°57'1211.8
2014-Jun-24 00:33N 40°15' E 003°08'3712.4
2014-Jun-23 21:32N 40°43' E 003°41'1412.6
2014-Jun-23 20:26N 40°53' E 003°54'1212.2
2014-Jun-23 19:25N 41°02' E 004°05'1112.5
2014-Jun-23 18:31N 41°10' E 004°16'1212.0
2014-Jun-23 17:33N 41°18' E 004°26'1312.6
2014-Jun-23 16:33N 41°27' E 004°38'1412.7
2014-Jun-23 15:27N 41°38' E 004°51'3911.8
2014-Jun-23 12:09N 42°05' E 005°27'5611.6
2014-Jun-23 07:19N 42°47' E 006°18'1112.1
2014-Jun-23 06:27N 42°54' E 006°29'1212.3
2014-Jun-23 05:31N 43°03' E 006°39'1412.6
2014-Jun-23 04:25N 43°15' E 006°48'1112.4
2014-Jun-23 03:33N 43°24' E 006°55'9 9.0
2014-Jun-23 02:31N 43°32' E 007°01'0 0.0
2014-Jun-23 00:30N 43°32' E 007°01'0 0.0
2014-Jun-22 22:27N 43°32' E 007°01'1 0.0
2014-Jun-21 08:27N 43°33' E 007°01'  

Dump ship's entire track history